sensor_id;sensor_type;location;lat;lon;timestamp;P1;durP1;ratioP1;P2;durP2;ratioP2
75152;SDS011;63734;45.218;36.708;2023-02-11T00:01:40;2.75;;;1.58;;
75152;SDS011;63734;45.218;36.708;2023-02-11T00:04:06;1.98;;;1.15;;
75152;SDS011;63734;45.218;36.708;2023-02-11T00:06:33;2.72;;;1.52;;
75152;SDS011;63734;45.218;36.708;2023-02-11T00:09:00;2.45;;;1.33;;
75152;SDS011;63734;45.218;36.708;2023-02-11T00:11:27;1.58;;;1.20;;
75152;SDS011;63734;45.218;36.708;2023-02-11T00:13:57;4.25;;;1.42;;
75152;SDS011;63734;45.218;36.708;2023-02-11T00:16:25;1.55;;;0.95;;
75152;SDS011;63734;45.218;36.708;2023-02-11T00:18:52;3.35;;;1.63;;
75152;SDS011;63734;45.218;36.708;2023-02-11T00:21:19;1.98;;;1.30;;
75152;SDS011;63734;45.218;36.708;2023-02-11T00:23:49;3.67;;;1.98;;
75152;SDS011;63734;45.218;36.708;2023-02-11T00:26:20;2.90;;;1.10;;
75152;SDS011;63734;45.218;36.708;2023-02-11T00:28:51;1.40;;;1.08;;
75152;SDS011;63734;45.218;36.708;2023-02-11T00:31:18;2.28;;;1.23;;
75152;SDS011;63734;45.218;36.708;2023-02-11T00:33:46;1.45;;;1.02;;
75152;SDS011;63734;45.218;36.708;2023-02-11T00:36:14;3.70;;;1.77;;
75152;SDS011;63734;45.218;36.708;2023-02-11T00:38:46;4.32;;;1.73;;
75152;SDS011;63734;45.218;36.708;2023-02-11T00:41:13;3.33;;;1.20;;
75152;SDS011;63734;45.218;36.708;2023-02-11T00:43:40;3.35;;;1.90;;
75152;SDS011;63734;45.218;36.708;2023-02-11T00:46:07;3.33;;;1.92;;
75152;SDS011;63734;45.218;36.708;2023-02-11T00:48:33;4.53;;;1.63;;
75152;SDS011;63734;45.218;36.708;2023-02-11T00:51:00;5.18;;;2.20;;
75152;SDS011;63734;45.218;36.708;2023-02-11T00:53:26;1.95;;;1.33;;
75152;SDS011;63734;45.218;36.708;2023-02-11T00:55:52;3.63;;;1.80;;
75152;SDS011;63734;45.218;36.708;2023-02-11T00:58:18;2.65;;;1.48;;
75152;SDS011;63734;45.218;36.708;2023-02-11T01:00:44;2.13;;;0.93;;
75152;SDS011;63734;45.218;36.708;2023-02-11T01:03:12;3.70;;;2.13;;
75152;SDS011;63734;45.218;36.708;2023-02-11T01:05:38;1.88;;;1.20;;
75152;SDS011;63734;45.218;36.708;2023-02-11T01:08:04;3.45;;;1.50;;
75152;SDS011;63734;45.218;36.708;2023-02-11T01:10:31;2.70;;;1.50;;
75152;SDS011;63734;45.218;36.708;2023-02-11T01:12:57;2.45;;;1.33;;
75152;SDS011;63734;45.218;36.708;2023-02-11T01:15:24;1.48;;;1.30;;
75152;SDS011;63734;45.218;36.708;2023-02-11T01:17:50;3.10;;;1.50;;
75152;SDS011;63734;45.218;36.708;2023-02-11T01:20:20;4.85;;;2.30;;
75152;SDS011;63734;45.218;36.708;2023-02-11T01:22:47;2.53;;;1.60;;
75152;SDS011;63734;45.218;36.708;2023-02-11T01:25:14;2.47;;;1.63;;
75152;SDS011;63734;45.218;36.708;2023-02-11T01:27:40;2.83;;;1.95;;
75152;SDS011;63734;45.218;36.708;2023-02-11T01:30:07;3.00;;;1.90;;
75152;SDS011;63734;45.218;36.708;2023-02-11T01:32:34;3.95;;;1.58;;
75152;SDS011;63734;45.218;36.708;2023-02-11T01:35:01;6.93;;;1.98;;
75152;SDS011;63734;45.218;36.708;2023-02-11T01:37:27;4.43;;;1.50;;
75152;SDS011;63734;45.218;36.708;2023-02-11T01:39:53;2.75;;;1.33;;
75152;SDS011;63734;45.218;36.708;2023-02-11T01:42:20;5.03;;;1.92;;
75152;SDS011;63734;45.218;36.708;2023-02-11T01:44:51;3.10;;;1.27;;
75152;SDS011;63734;45.218;36.708;2023-02-11T01:47:18;1.48;;;0.80;;
75152;SDS011;63734;45.218;36.708;2023-02-11T01:49:48;3.85;;;1.73;;
75152;SDS011;63734;45.218;36.708;2023-02-11T01:52:29;3.20;;;1.83;;
75152;SDS011;63734;45.218;36.708;2023-02-11T01:55:10;3.40;;;1.77;;
75152;SDS011;63734;45.218;36.708;2023-02-11T01:58:00;4.43;;;1.58;;
75152;SDS011;63734;45.218;36.708;2023-02-11T02:00:34;3.33;;;2.05;;
75152;SDS011;63734;45.218;36.708;2023-02-11T02:08:35;4.53;;;2.67;;
75152;SDS011;63734;45.218;36.708;2023-02-11T02:11:07;3.67;;;1.27;;
75152;SDS011;63734;45.218;36.708;2023-02-11T02:13:35;6.93;;;2.28;;
75152;SDS011;63734;45.218;36.708;2023-02-11T02:16:06;3.60;;;1.88;;
75152;SDS011;63734;45.218;36.708;2023-02-11T02:21:19;2.17;;;1.38;;
75152;SDS011;63734;45.218;36.708;2023-02-11T02:26:55;4.75;;;2.00;;
75152;SDS011;63734;45.218;36.708;2023-02-11T02:29:30;2.88;;;1.38;;
75152;SDS011;63734;45.218;36.708;2023-02-11T02:32:31;1.52;;;0.85;;
75152;SDS011;63734;45.218;36.708;2023-02-11T02:41:17;3.38;;;1.25;;
75152;SDS011;63734;45.218;36.708;2023-02-11T02:43:47;4.90;;;1.75;;
75152;SDS011;63734;45.218;36.708;2023-02-11T02:46:18;2.70;;;1.25;;
75152;SDS011;63734;45.218;36.708;2023-02-11T02:48:50;3.60;;;3.10;;
75152;SDS011;63734;45.218;36.708;2023-02-11T03:05:48;3.00;;;1.05;;
75152;SDS011;63734;45.218;36.708;2023-02-11T03:08:06;2.78;;;1.48;;
75152;SDS011;63734;45.218;36.708;2023-02-11T03:10:44;3.53;;;1.35;;
75152;SDS011;63734;45.218;36.708;2023-02-11T03:13:13;1.40;;;1.20;;
75152;SDS011;63734;45.218;36.708;2023-02-11T03:15:42;3.95;;;1.42;;
75152;SDS011;63734;45.218;36.708;2023-02-11T03:18:12;1.90;;;1.40;;
75152;SDS011;63734;45.218;36.708;2023-02-11T03:20:42;5.35;;;1.65;;
75152;SDS011;63734;45.218;36.708;2023-02-11T03:25:57;1.50;;;1.10;;
75152;SDS011;63734;45.218;36.708;2023-02-11T03:31:24;2.55;;;1.60;;
75152;SDS011;63734;45.218;36.708;2023-02-11T03:36:53;3.83;;;1.60;;
75152;SDS011;63734;45.218;36.708;2023-02-11T03:39:42;3.78;;;1.77;;
75152;SDS011;63734;45.218;36.708;2023-02-11T03:42:12;2.90;;;1.95;;
75152;SDS011;63734;45.218;36.708;2023-02-11T03:44:40;2.88;;;1.15;;
75152;SDS011;63734;45.218;36.708;2023-02-11T03:47:11;3.83;;;2.08;;
75152;SDS011;63734;45.218;36.708;2023-02-11T03:49:41;1.70;;;1.08;;
75152;SDS011;63734;45.218;36.708;2023-02-11T03:52:10;3.75;;;1.90;;
75152;SDS011;63734;45.218;36.708;2023-02-11T03:54:39;4.43;;;1.63;;
75152;SDS011;63734;45.218;36.708;2023-02-11T03:57:07;2.22;;;1.15;;
75152;SDS011;63734;45.218;36.708;2023-02-11T03:59:48;3.35;;;1.88;;
75152;SDS011;63734;45.218;36.708;2023-02-11T04:02:15;3.95;;;1.75;;
75152;SDS011;63734;45.218;36.708;2023-02-11T04:04:41;7.07;;;2.17;;
75152;SDS011;63734;45.218;36.708;2023-02-11T04:07:08;4.45;;;2.08;;
75152;SDS011;63734;45.218;36.708;2023-02-11T04:09:36;3.67;;;2.03;;
75152;SDS011;63734;45.218;36.708;2023-02-11T04:12:02;5.82;;;1.80;;
75152;SDS011;63734;45.218;36.708;2023-02-11T04:14:28;5.47;;;2.28;;
75152;SDS011;63734;45.218;36.708;2023-02-11T04:16:54;4.88;;;2.05;;
75152;SDS011;63734;45.218;36.708;2023-02-11T04:19:20;7.30;;;2.47;;
75152;SDS011;63734;45.218;36.708;2023-02-11T04:21:46;4.85;;;2.47;;
75152;SDS011;63734;45.218;36.708;2023-02-11T04:24:12;7.70;;;2.10;;
75152;SDS011;63734;45.218;36.708;2023-02-11T04:26:38;5.80;;;2.60;;
75152;SDS011;63734;45.218;36.708;2023-02-11T04:29:04;6.10;;;2.63;;
75152;SDS011;63734;45.218;36.708;2023-02-11T04:31:30;5.43;;;2.97;;
75152;SDS011;63734;45.218;36.708;2023-02-11T04:33:56;3.60;;;1.95;;
75152;SDS011;63734;45.218;36.708;2023-02-11T04:36:22;5.10;;;2.45;;
75152;SDS011;63734;45.218;36.708;2023-02-11T04:38:48;4.85;;;2.67;;
75152;SDS011;63734;45.218;36.708;2023-02-11T04:41:14;5.43;;;2.65;;
75152;SDS011;63734;45.218;36.708;2023-02-11T04:43:40;7.45;;;3.17;;
75152;SDS011;63734;45.218;36.708;2023-02-11T04:46:06;4.28;;;2.40;;
75152;SDS011;63734;45.218;36.708;2023-02-11T04:48:32;3.95;;;2.13;;
75152;SDS011;63734;45.218;36.708;2023-02-11T04:51:00;7.07;;;2.65;;
75152;SDS011;63734;45.218;36.708;2023-02-11T04:53:27;4.43;;;2.80;;
75152;SDS011;63734;45.218;36.708;2023-02-11T04:55:53;5.63;;;2.10;;
75152;SDS011;63734;45.218;36.708;2023-02-11T04:58:19;6.85;;;3.17;;
75152;SDS011;63734;45.218;36.708;2023-02-11T05:00:45;7.32;;;3.03;;
75152;SDS011;63734;45.218;36.708;2023-02-11T05:03:12;5.80;;;3.03;;
75152;SDS011;63734;45.218;36.708;2023-02-11T05:05:39;6.47;;;2.65;;
75152;SDS011;63734;45.218;36.708;2023-02-11T05:08:06;5.65;;;2.58;;
75152;SDS011;63734;45.218;36.708;2023-02-11T05:10:33;11.55;;;2.90;;
75152;SDS011;63734;45.218;36.708;2023-02-11T05:12:59;4.88;;;2.95;;
75152;SDS011;63734;45.218;36.708;2023-02-11T05:15:25;5.43;;;2.92;;
75152;SDS011;63734;45.218;36.708;2023-02-11T05:17:51;6.85;;;2.95;;
75152;SDS011;63734;45.218;36.708;2023-02-11T05:20:18;8.00;;;3.25;;
75152;SDS011;63734;45.218;36.708;2023-02-11T05:22:44;6.32;;;2.60;;
75152;SDS011;63734;45.218;36.708;2023-02-11T05:25:10;10.05;;;3.45;;
75152;SDS011;63734;45.218;36.708;2023-02-11T05:27:37;8.38;;;3.60;;
75152;SDS011;63734;45.218;36.708;2023-02-11T05:30:03;13.10;;;4.20;;
75152;SDS011;63734;45.218;36.708;2023-02-11T05:32:30;7.95;;;4.18;;
75152;SDS011;63734;45.218;36.708;2023-02-11T05:34:57;12.65;;;4.57;;
75152;SDS011;63734;45.218;36.708;2023-02-11T05:37:23;14.75;;;4.63;;
75152;SDS011;63734;45.218;36.708;2023-02-11T05:39:49;11.15;;;4.97;;
75152;SDS011;63734;45.218;36.708;2023-02-11T05:42:15;12.52;;;4.80;;
75152;SDS011;63734;45.218;36.708;2023-02-11T05:44:41;8.15;;;4.10;;
75152;SDS011;63734;45.218;36.708;2023-02-11T05:47:07;7.63;;;3.78;;
75152;SDS011;63734;45.218;36.708;2023-02-11T05:49:33;7.53;;;3.80;;
75152;SDS011;63734;45.218;36.708;2023-02-11T05:52:00;11.07;;;4.00;;
75152;SDS011;63734;45.218;36.708;2023-02-11T05:54:26;7.28;;;3.78;;
75152;SDS011;63734;45.218;36.708;2023-02-11T05:56:52;6.90;;;3.67;;
75152;SDS011;63734;45.218;36.708;2023-02-11T05:59:18;7.32;;;3.78;;
75152;SDS011;63734;45.218;36.708;2023-02-11T06:01:44;7.70;;;3.88;;
75152;SDS011;63734;45.218;36.708;2023-02-11T06:04:11;10.07;;;3.60;;
75152;SDS011;63734;45.218;36.708;2023-02-11T06:06:37;6.63;;;3.42;;
75152;SDS011;63734;45.218;36.708;2023-02-11T06:09:03;6.00;;;3.00;;
75152;SDS011;63734;45.218;36.708;2023-02-11T06:11:30;6.28;;;3.50;;
75152;SDS011;63734;45.218;36.708;2023-02-11T06:13:56;5.97;;;3.35;;
75152;SDS011;63734;45.218;36.708;2023-02-11T06:16:22;7.25;;;3.25;;
75152;SDS011;63734;45.218;36.708;2023-02-11T06:18:48;10.20;;;3.40;;
75152;SDS011;63734;45.218;36.708;2023-02-11T06:21:14;6.15;;;2.78;;
75152;SDS011;63734;45.218;36.708;2023-02-11T06:23:40;4.43;;;2.42;;
75152;SDS011;63734;45.218;36.708;2023-02-11T06:26:14;5.93;;;2.90;;
75152;SDS011;63734;45.218;36.708;2023-02-11T06:28:43;3.63;;;2.53;;
75152;SDS011;63734;45.218;36.708;2023-02-11T06:31:09;5.15;;;2.95;;
75152;SDS011;63734;45.218;36.708;2023-02-11T06:33:36;3.95;;;2.20;;
75152;SDS011;63734;45.218;36.708;2023-02-11T06:36:03;4.90;;;2.38;;
75152;SDS011;63734;45.218;36.708;2023-02-11T06:38:36;4.70;;;2.40;;
75152;SDS011;63734;45.218;36.708;2023-02-11T06:41:02;5.15;;;2.33;;
75152;SDS011;63734;45.218;36.708;2023-02-11T06:43:29;4.15;;;2.15;;
75152;SDS011;63734;45.218;36.708;2023-02-11T06:45:55;3.17;;;1.88;;
75152;SDS011;63734;45.218;36.708;2023-02-11T06:48:21;4.25;;;2.20;;
75152;SDS011;63734;45.218;36.708;2023-02-11T06:50:48;6.05;;;2.33;;
75152;SDS011;63734;45.218;36.708;2023-02-11T06:53:14;8.50;;;2.25;;
75152;SDS011;63734;45.218;36.708;2023-02-11T06:55:40;4.63;;;2.15;;
75152;SDS011;63734;45.218;36.708;2023-02-11T06:58:07;3.70;;;1.85;;
75152;SDS011;63734;45.218;36.708;2023-02-11T07:00:33;5.13;;;2.45;;
75152;SDS011;63734;45.218;36.708;2023-02-11T07:02:59;4.93;;;2.65;;
75152;SDS011;63734;45.218;36.708;2023-02-11T07:05:25;4.95;;;2.63;;
75152;SDS011;63734;45.218;36.708;2023-02-11T07:07:51;5.60;;;2.58;;
75152;SDS011;63734;45.218;36.708;2023-02-11T07:10:17;6.70;;;2.28;;
75152;SDS011;63734;45.218;36.708;2023-02-11T07:12:43;3.38;;;2.38;;
75152;SDS011;63734;45.218;36.708;2023-02-11T07:15:10;3.15;;;2.10;;
75152;SDS011;63734;45.218;36.708;2023-02-11T07:17:39;3.83;;;2.20;;
75152;SDS011;63734;45.218;36.708;2023-02-11T07:20:08;4.53;;;2.60;;
75152;SDS011;63734;45.218;36.708;2023-02-11T07:22:39;3.20;;;2.00;;
75152;SDS011;63734;45.218;36.708;2023-02-11T07:25:06;4.93;;;2.60;;
75152;SDS011;63734;45.218;36.708;2023-02-11T07:27:32;3.58;;;2.40;;
75152;SDS011;63734;45.218;36.708;2023-02-11T07:29:59;4.47;;;2.53;;
75152;SDS011;63734;45.218;36.708;2023-02-11T07:32:25;5.65;;;2.83;;
75152;SDS011;63734;45.218;36.708;2023-02-11T07:34:51;4.97;;;3.10;;
75152;SDS011;63734;45.218;36.708;2023-02-11T07:37:17;4.50;;;2.67;;
75152;SDS011;63734;45.218;36.708;2023-02-11T07:39:44;6.18;;;2.75;;
75152;SDS011;63734;45.218;36.708;2023-02-11T07:42:10;5.22;;;3.03;;
75152;SDS011;63734;45.218;36.708;2023-02-11T07:44:36;5.93;;;3.03;;
75152;SDS011;63734;45.218;36.708;2023-02-11T07:47:05;5.55;;;3.10;;
75152;SDS011;63734;45.218;36.708;2023-02-11T07:49:31;6.13;;;3.10;;
75152;SDS011;63734;45.218;36.708;2023-02-11T07:51:58;11.30;;;3.25;;
75152;SDS011;63734;45.218;36.708;2023-02-11T07:54:24;5.75;;;3.08;;
75152;SDS011;63734;45.218;36.708;2023-02-11T07:56:50;5.13;;;3.03;;
75152;SDS011;63734;45.218;36.708;2023-02-11T07:59:17;6.10;;;3.22;;
75152;SDS011;63734;45.218;36.708;2023-02-11T08:01:43;6.00;;;2.90;;
75152;SDS011;63734;45.218;36.708;2023-02-11T08:04:09;6.03;;;3.13;;
75152;SDS011;63734;45.218;36.708;2023-02-11T08:06:38;7.00;;;3.38;;
75152;SDS011;63734;45.218;36.708;2023-02-11T08:09:12;6.47;;;2.92;;
75152;SDS011;63734;45.218;36.708;2023-02-11T08:11:40;7.32;;;3.83;;
75152;SDS011;63734;45.218;36.708;2023-02-11T08:14:07;7.72;;;4.22;;
75152;SDS011;63734;45.218;36.708;2023-02-11T08:16:34;6.32;;;3.03;;
75152;SDS011;63734;45.218;36.708;2023-02-11T08:19:04;5.43;;;2.83;;
75152;SDS011;63734;45.218;36.708;2023-02-11T08:21:32;6.80;;;3.40;;
75152;SDS011;63734;45.218;36.708;2023-02-11T08:24:00;9.05;;;4.30;;
75152;SDS011;63734;45.218;36.708;2023-02-11T08:26:28;8.75;;;3.33;;
75152;SDS011;63734;45.218;36.708;2023-02-11T08:28:56;10.32;;;4.35;;
75152;SDS011;63734;45.218;36.708;2023-02-11T08:31:28;6.63;;;3.58;;
75152;SDS011;63734;45.218;36.708;2023-02-11T08:33:58;6.43;;;3.72;;
75152;SDS011;63734;45.218;36.708;2023-02-11T08:36:31;4.82;;;2.80;;
75152;SDS011;63734;45.218;36.708;2023-02-11T08:38:59;10.50;;;4.50;;
75152;SDS011;63734;45.218;36.708;2023-02-11T08:41:28;10.95;;;4.95;;
75152;SDS011;63734;45.218;36.708;2023-02-11T08:43:54;10.25;;;4.70;;
75152;SDS011;63734;45.218;36.708;2023-02-11T08:46:20;12.52;;;5.45;;
75152;SDS011;63734;45.218;36.708;2023-02-11T08:48:47;10.55;;;4.57;;
75152;SDS011;63734;45.218;36.708;2023-02-11T08:51:15;9.85;;;4.72;;
75152;SDS011;63734;45.218;36.708;2023-02-11T08:53:46;10.57;;;4.25;;
75152;SDS011;63734;45.218;36.708;2023-02-11T08:56:13;8.65;;;3.85;;
75152;SDS011;63734;45.218;36.708;2023-02-11T08:58:40;7.72;;;3.95;;
75152;SDS011;63734;45.218;36.708;2023-02-11T09:01:14;11.32;;;4.68;;
75152;SDS011;63734;45.218;36.708;2023-02-11T09:03:42;9.45;;;4.93;;
75152;SDS011;63734;45.218;36.708;2023-02-11T09:06:09;8.23;;;4.95;;
75152;SDS011;63734;45.218;36.708;2023-02-11T09:08:37;9.38;;;3.78;;
75152;SDS011;63734;45.218;36.708;2023-02-11T09:11:05;8.90;;;4.45;;
75152;SDS011;63734;45.218;36.708;2023-02-11T09:13:32;9.30;;;3.67;;
75152;SDS011;63734;45.218;36.708;2023-02-11T09:15:59;9.85;;;4.05;;
75152;SDS011;63734;45.218;36.708;2023-02-11T09:18:27;8.57;;;4.05;;
75152;SDS011;63734;45.218;36.708;2023-02-11T09:21:01;7.45;;;3.85;;
75152;SDS011;63734;45.218;36.708;2023-02-11T09:23:28;4.85;;;2.95;;
75152;SDS011;63734;45.218;36.708;2023-02-11T09:25:55;6.05;;;3.45;;
75152;SDS011;63734;45.218;36.708;2023-02-11T09:28:21;9.35;;;4.30;;
75152;SDS011;63734;45.218;36.708;2023-02-11T09:30:47;7.85;;;3.55;;
75152;SDS011;63734;45.218;36.708;2023-02-11T09:33:13;6.13;;;3.35;;
75152;SDS011;63734;45.218;36.708;2023-02-11T09:35:39;7.65;;;4.15;;
75152;SDS011;63734;45.218;36.708;2023-02-11T09:38:05;11.20;;;4.95;;
75152;SDS011;63734;45.218;36.708;2023-02-11T09:40:32;10.20;;;4.10;;
75152;SDS011;63734;45.218;36.708;2023-02-11T09:45:33;10.07;;;5.25;;
75152;SDS011;63734;45.218;36.708;2023-02-11T09:50:39;8.48;;;4.70;;
75152;SDS011;63734;45.218;36.708;2023-02-11T09:53:10;7.88;;;3.90;;
75152;SDS011;63734;45.218;36.708;2023-02-11T09:55:55;12.00;;;5.72;;
75152;SDS011;63734;45.218;36.708;2023-02-11T09:58:25;11.65;;;5.57;;
75152;SDS011;63734;45.218;36.708;2023-02-11T10:03:55;13.60;;;5.70;;
75152;SDS011;63734;45.218;36.708;2023-02-11T10:06:35;6.63;;;3.28;;
75152;SDS011;63734;45.218;36.708;2023-02-11T10:09:30;8.75;;;4.20;;
75152;SDS011;63734;45.218;36.708;2023-02-11T10:12:16;12.05;;;5.85;;
75152;SDS011;63734;45.218;36.708;2023-02-11T10:23:45;8.00;;;4.25;;
75152;SDS011;63734;45.218;36.708;2023-02-11T10:26:16;9.45;;;4.30;;
75152;SDS011;63734;45.218;36.708;2023-02-11T10:28:48;12.40;;;4.82;;
75152;SDS011;63734;45.218;36.708;2023-02-11T10:31:24;11.00;;;4.00;;
75152;SDS011;63734;45.218;36.708;2023-02-11T10:33:59;9.05;;;4.35;;
75152;SDS011;63734;45.218;36.708;2023-02-11T10:36:30;6.10;;;3.00;;
75152;SDS011;63734;45.218;36.708;2023-02-11T10:39:00;8.95;;;4.63;;
75152;SDS011;63734;45.218;36.708;2023-02-11T10:41:36;9.48;;;4.40;;
75152;SDS011;63734;45.218;36.708;2023-02-11T10:44:06;8.27;;;4.63;;
75152;SDS011;63734;45.218;36.708;2023-02-11T10:46:33;12.77;;;5.78;;
75152;SDS011;63734;45.218;36.708;2023-02-11T10:49:04;9.23;;;5.00;;
75152;SDS011;63734;45.218;36.708;2023-02-11T10:51:31;9.75;;;4.65;;
75152;SDS011;63734;45.218;36.708;2023-02-11T10:56:34;8.07;;;4.53;;
75152;SDS011;63734;45.218;36.708;2023-02-11T10:59:44;9.57;;;4.88;;
75152;SDS011;63734;45.218;36.708;2023-02-11T11:02:03;7.55;;;3.80;;
75152;SDS011;63734;45.218;36.708;2023-02-11T11:04:46;7.75;;;4.07;;
75152;SDS011;63734;45.218;36.708;2023-02-11T11:07:26;5.85;;;2.75;;
75152;SDS011;63734;45.218;36.708;2023-02-11T11:09:58;9.35;;;3.92;;
75152;SDS011;63734;45.218;36.708;2023-02-11T11:12:32;11.50;;;4.15;;
75152;SDS011;63734;45.218;36.708;2023-02-11T11:18:09;10.00;;;4.70;;
75152;SDS011;63734;45.218;36.708;2023-02-11T11:23:24;6.88;;;3.22;;
75152;SDS011;63734;45.218;36.708;2023-02-11T11:25:59;8.60;;;4.20;;
75152;SDS011;63734;45.218;36.708;2023-02-11T11:28:32;11.27;;;4.25;;
75152;SDS011;63734;45.218;36.708;2023-02-11T11:31:15;11.27;;;5.10;;
75152;SDS011;63734;45.218;36.708;2023-02-11T11:33:44;11.63;;;5.15;;
75152;SDS011;63734;45.218;36.708;2023-02-11T11:36:16;8.88;;;4.68;;
75152;SDS011;63734;45.218;36.708;2023-02-11T11:38:55;9.00;;;4.40;;
75152;SDS011;63734;45.218;36.708;2023-02-11T11:41:27;10.27;;;4.88;;
75152;SDS011;63734;45.218;36.708;2023-02-11T11:44:20;9.60;;;4.55;;
75152;SDS011;63734;45.218;36.708;2023-02-11T11:46:47;7.82;;;3.17;;
75152;SDS011;63734;45.218;36.708;2023-02-11T11:49:33;9.52;;;4.63;;
75152;SDS011;63734;45.218;36.708;2023-02-11T11:54:53;9.43;;;3.78;;
75152;SDS011;63734;45.218;36.708;2023-02-11T11:57:35;8.77;;;4.13;;
75152;SDS011;63734;45.218;36.708;2023-02-11T12:00:03;9.85;;;5.05;;
75152;SDS011;63734;45.218;36.708;2023-02-11T12:05:26;8.13;;;4.50;;
75152;SDS011;63734;45.218;36.708;2023-02-11T12:19:06;8.85;;;4.95;;
75152;SDS011;63734;45.218;36.708;2023-02-11T12:21:49;5.22;;;3.30;;
75152;SDS011;63734;45.218;36.708;2023-02-11T12:24:50;8.30;;;4.18;;
75152;SDS011;63734;45.218;36.708;2023-02-11T12:30:25;4.68;;;3.30;;
75152;SDS011;63734;45.218;36.708;2023-02-11T12:53:07;9.35;;;4.68;;
75152;SDS011;63734;45.218;36.708;2023-02-11T12:58:26;9.32;;;4.20;;
75152;SDS011;63734;45.218;36.708;2023-02-11T13:01:00;7.85;;;3.92;;
75152;SDS011;63734;45.218;36.708;2023-02-11T13:06:12;7.43;;;4.25;;
75152;SDS011;63734;45.218;36.708;2023-02-11T13:11:20;9.65;;;4.85;;
75152;SDS011;63734;45.218;36.708;2023-02-11T13:13:55;7.97;;;4.13;;
75152;SDS011;63734;45.218;36.708;2023-02-11T13:16:32;8.73;;;4.53;;
75152;SDS011;63734;45.218;36.708;2023-02-11T13:19:06;5.90;;;2.80;;
75152;SDS011;63734;45.218;36.708;2023-02-11T13:21:44;10.90;;;5.07;;
75152;SDS011;63734;45.218;36.708;2023-02-11T13:32:04;6.32;;;3.35;;
75152;SDS011;63734;45.218;36.708;2023-02-11T13:37:18;23.77;;;8.13;;
75152;SDS011;63734;45.218;36.708;2023-02-11T13:39:58;16.58;;;6.63;;
75152;SDS011;63734;45.218;36.708;2023-02-11T13:42:27;22.65;;;9.00;;
75152;SDS011;63734;45.218;36.708;2023-02-11T13:44:54;10.63;;;5.57;;
75152;SDS011;63734;45.218;36.708;2023-02-11T13:47:25;12.15;;;5.50;;
75152;SDS011;63734;45.218;36.708;2023-02-11T13:49:54;10.07;;;3.90;;
75152;SDS011;63734;45.218;36.708;2023-02-11T13:52:23;8.88;;;4.07;;
75152;SDS011;63734;45.218;36.708;2023-02-11T13:54:50;9.85;;;4.93;;
75152;SDS011;63734;45.218;36.708;2023-02-11T13:59:48;10.90;;;5.60;;
75152;SDS011;63734;45.218;36.708;2023-02-11T14:02:30;8.60;;;4.40;;
75152;SDS011;63734;45.218;36.708;2023-02-11T14:16:12;8.40;;;3.87;;
75152;SDS011;63734;45.218;36.708;2023-02-11T14:29:24;8.88;;;3.70;;
75152;SDS011;63734;45.218;36.708;2023-02-11T14:32:18;8.20;;;3.97;;
75152;SDS011;63734;45.218;36.708;2023-02-11T14:35:15;9.68;;;4.45;;
75152;SDS011;63734;45.218;36.708;2023-02-11T14:40:43;8.68;;;4.40;;
75152;SDS011;63734;45.218;36.708;2023-02-11T14:43:18;9.07;;;3.25;;
75152;SDS011;63734;45.218;36.708;2023-02-11T14:45:54;8.95;;;4.13;;
75152;SDS011;63734;45.218;36.708;2023-02-11T14:48:32;5.05;;;2.78;;
75152;SDS011;63734;45.218;36.708;2023-02-11T14:53:30;10.15;;;5.53;;
75152;SDS011;63734;45.218;36.708;2023-02-11T14:55:57;9.68;;;5.07;;
75152;SDS011;63734;45.218;36.708;2023-02-11T14:58:24;8.05;;;4.45;;
75152;SDS011;63734;45.218;36.708;2023-02-11T15:03:32;7.00;;;3.42;;
75152;SDS011;63734;45.218;36.708;2023-02-11T15:06:21;10.57;;;4.20;;
75152;SDS011;63734;45.218;36.708;2023-02-11T15:08:51;8.68;;;3.85;;
75152;SDS011;63734;45.218;36.708;2023-02-11T15:11:40;8.07;;;3.70;;
75152;SDS011;63734;45.218;36.708;2023-02-11T15:14:08;6.72;;;3.28;;
75152;SDS011;63734;45.218;36.708;2023-02-11T15:16:41;9.63;;;4.05;;
75152;SDS011;63734;45.218;36.708;2023-02-11T15:19:43;8.52;;;4.03;;
75152;SDS011;63734;45.218;36.708;2023-02-11T15:24:32;7.85;;;3.72;;
75152;SDS011;63734;45.218;36.708;2023-02-11T15:29:39;3.33;;;2.53;;
75152;SDS011;63734;45.218;36.708;2023-02-11T15:34:34;12.25;;;5.03;;
75152;SDS011;63734;45.218;36.708;2023-02-11T15:37:01;5.43;;;3.08;;
75152;SDS011;63734;45.218;36.708;2023-02-11T15:39:35;8.13;;;3.40;;
75152;SDS011;63734;45.218;36.708;2023-02-11T15:42:24;5.60;;;3.03;;
75152;SDS011;63734;45.218;36.708;2023-02-11T15:44:49;9.32;;;3.72;;
75152;SDS011;63734;45.218;36.708;2023-02-11T15:47:33;5.93;;;2.97;;
75152;SDS011;63734;45.218;36.708;2023-02-11T15:49:59;10.13;;;4.80;;
75152;SDS011;63734;45.218;36.708;2023-02-11T15:52:26;7.00;;;3.78;;
75152;SDS011;63734;45.218;36.708;2023-02-11T15:54:53;7.53;;;4.38;;
75152;SDS011;63734;45.218;36.708;2023-02-11T15:57:23;10.90;;;3.90;;
75152;SDS011;63734;45.218;36.708;2023-02-11T15:59:50;11.32;;;4.07;;
75152;SDS011;63734;45.218;36.708;2023-02-11T16:02:27;6.75;;;3.63;;
75152;SDS011;63734;45.218;36.708;2023-02-11T16:04:58;8.88;;;2.63;;
75152;SDS011;63734;45.218;36.708;2023-02-11T16:10:12;11.75;;;3.60;;
75152;SDS011;63734;45.218;36.708;2023-02-11T16:12:57;9.85;;;4.32;;
75152;SDS011;63734;45.218;36.708;2023-02-11T16:15:42;8.48;;;3.42;;
75152;SDS011;63734;45.218;36.708;2023-02-11T16:21:15;10.25;;;4.18;;
75152;SDS011;63734;45.218;36.708;2023-02-11T16:23:53;8.02;;;3.35;;
75152;SDS011;63734;45.218;36.708;2023-02-11T16:29:21;7.40;;;3.10;;
75152;SDS011;63734;45.218;36.708;2023-02-11T16:31:49;8.88;;;4.20;;
75152;SDS011;63734;45.218;36.708;2023-02-11T16:34:20;8.27;;;3.55;;
75152;SDS011;63734;45.218;36.708;2023-02-11T16:36:48;9.57;;;3.30;;
75152;SDS011;63734;45.218;36.708;2023-02-11T16:39:16;6.82;;;3.35;;
75152;SDS011;63734;45.218;36.708;2023-02-11T16:41:43;7.38;;;3.20;;
75152;SDS011;63734;45.218;36.708;2023-02-11T16:44:09;5.53;;;3.50;;
75152;SDS011;63734;45.218;36.708;2023-02-11T16:46:36;4.15;;;2.63;;
75152;SDS011;63734;45.218;36.708;2023-02-11T16:49:08;9.07;;;4.22;;
75152;SDS011;63734;45.218;36.708;2023-02-11T16:51:37;9.02;;;4.30;;
75152;SDS011;63734;45.218;36.708;2023-02-11T16:54:04;9.07;;;4.30;;
75152;SDS011;63734;45.218;36.708;2023-02-11T16:56:30;10.88;;;4.75;;
75152;SDS011;63734;45.218;36.708;2023-02-11T16:58:56;7.63;;;3.83;;
75152;SDS011;63734;45.218;36.708;2023-02-11T17:01:23;5.97;;;3.65;;
75152;SDS011;63734;45.218;36.708;2023-02-11T17:03:50;5.63;;;3.53;;
75152;SDS011;63734;45.218;36.708;2023-02-11T17:06:16;6.50;;;3.22;;
75152;SDS011;63734;45.218;36.708;2023-02-11T17:08:42;7.25;;;3.17;;
75152;SDS011;63734;45.218;36.708;2023-02-11T17:11:09;13.73;;;4.03;;
75152;SDS011;63734;45.218;36.708;2023-02-11T17:13:35;6.38;;;3.50;;
75152;SDS011;63734;45.218;36.708;2023-02-11T17:16:04;8.07;;;4.50;;
75152;SDS011;63734;45.218;36.708;2023-02-11T17:18:30;25.42;;;11.00;;
75152;SDS011;63734;45.218;36.708;2023-02-11T17:20:58;18.45;;;9.27;;
75152;SDS011;63734;45.218;36.708;2023-02-11T17:23:25;10.95;;;6.50;;
75152;SDS011;63734;45.218;36.708;2023-02-11T17:25:55;7.18;;;3.83;;
75152;SDS011;63734;45.218;36.708;2023-02-11T17:28:21;9.50;;;4.60;;
75152;SDS011;63734;45.218;36.708;2023-02-11T17:30:48;11.35;;;3.85;;
75152;SDS011;63734;45.218;36.708;2023-02-11T17:33:15;8.13;;;4.25;;
75152;SDS011;63734;45.218;36.708;2023-02-11T17:35:43;7.60;;;3.65;;
75152;SDS011;63734;45.218;36.708;2023-02-11T17:38:10;6.50;;;3.30;;
75152;SDS011;63734;45.218;36.708;2023-02-11T17:40:38;6.50;;;3.13;;
75152;SDS011;63734;45.218;36.708;2023-02-11T17:43:04;8.23;;;3.45;;